Accueil
METAR-TAF:

METAR-TAF

Aéroports :

Aéroport de Venise-Marco-Polo

Venise, Italie

latitude: 45-30N, longitude: 012-20E, altitude: 2 m

Observation

Le bulletin a été fait il y a 31 minutes, à 22:50 UTC
Vent 7 kt de nord/nord-est
Température 16°C
Humidité 82%
Pression 1002 hPa
Visibilité 10 km ou plus
Quelques nuages à une hauteur de 2000 ft

METAR: LIPZ 262250Z 02007KT 9999 FEW020 16/13 Q1002 NOSIG

Heure: 01:21 (23:21 UTC)

Prévision

Le bulletin a été fait il y a 6 heures et 21 minutes, à 17:00 UTC
Prévision valable du 26 à 18 UTC au 27 à 24 UTC
Vent 5 kt de direction variable
Visibilité 10 km ou plus
Nuages épars à une hauteur de 2000 ft
Temporairement
du 26 à 18 UTC au 27 à 07 UTC
averses de pluie
Evoluant progressivement
du 26 à 20 UTC au 26 à 22 UTC
Vent 10 kt de nord-est

TAF: LIPZ 261700Z 2618/2724 VRB05KT 9999 SCT020 TEMPO 2618/2707 SHRA BECMG 2620/2622 04010KT

Observations et prévisions météorologiques de plus de 4000 aéroports (messages METAR et TAF).

Les stations disponibles sont représentées par des disques jaunes et rouges sur la carte.

Passer la souris dessus pour voir le nom de la station.

Cliquer dessus pour voir les observations et prévisions météorologiques.

Pour changer de carte: cliquez sur les boutons verts avec une croix noire pour zoomer, sur le bouton vert avec un tiret pour effectuer un zoom arrière, ou sur les flèches vertes pour les cartes adjacentes.


METAR-TAF: